sensor_id;sensor_type;location;lat;lon;timestamp;temperature;humidity
55135;DHT22;41031;44.750;11.308;2022-07-18T00:00:00;25.10;65.10
55135;DHT22;41031;44.750;11.308;2022-07-18T00:02:30;25.00;65.40
55135;DHT22;41031;44.750;11.308;2022-07-18T00:04:57;25.00;65.70
55135;DHT22;41031;44.750;11.308;2022-07-18T00:07:24;25.00;65.80
55135;DHT22;41031;44.750;11.308;2022-07-18T00:09:52;25.00;66.10
55135;DHT22;41031;44.750;11.308;2022-07-18T00:12:19;25.00;66.20
55135;DHT22;41031;44.750;11.308;2022-07-18T00:14:46;24.90;66.30
55135;DHT22;41031;44.750;11.308;2022-07-18T00:17:13;24.90;66.60
55135;DHT22;41031;44.750;11.308;2022-07-18T00:19:40;24.80;66.70
55135;DHT22;41031;44.750;11.308;2022-07-18T00:22:08;24.80;66.80
55135;DHT22;41031;44.750;11.308;2022-07-18T00:24:35;24.80;67.20
55135;DHT22;41031;44.750;11.308;2022-07-18T00:27:04;24.80;67.50
55135;DHT22;41031;44.750;11.308;2022-07-18T00:29:35;24.70;67.50
55135;DHT22;41031;44.750;11.308;2022-07-18T00:32:08;24.70;67.50
55135;DHT22;41031;44.750;11.308;2022-07-18T00:34:35;24.60;67.60
55135;DHT22;41031;44.750;11.308;2022-07-18T00:37:03;24.60;68.00
55135;DHT22;41031;44.750;11.308;2022-07-18T00:39:30;24.60;68.30
55135;DHT22;41031;44.750;11.308;2022-07-18T00:41:57;24.50;68.40
55135;DHT22;41031;44.750;11.308;2022-07-18T00:44:26;24.50;68.40
55135;DHT22;41031;44.750;11.308;2022-07-18T00:46:57;24.50;68.30
55135;DHT22;41031;44.750;11.308;2022-07-18T00:49:25;24.50;68.50
55135;DHT22;41031;44.750;11.308;2022-07-18T00:51:53;24.40;68.80
55135;DHT22;41031;44.750;11.308;2022-07-18T00:54:21;24.40;69.00
55135;DHT22;41031;44.750;11.308;2022-07-18T00:56:49;24.40;69.10
55135;DHT22;41031;44.750;11.308;2022-07-18T00:59:17;24.40;69.20
55135;DHT22;41031;44.750;11.308;2022-07-18T01:01:45;24.30;69.40
55135;DHT22;41031;44.750;11.308;2022-07-18T01:04:19;24.40;69.70
55135;DHT22;41031;44.750;11.308;2022-07-18T01:06:48;24.30;69.50
55135;DHT22;41031;44.750;11.308;2022-07-18T01:09:19;24.30;69.40
55135;DHT22;41031;44.750;11.308;2022-07-18T01:11:47;24.40;69.50
55135;DHT22;41031;44.750;11.308;2022-07-18T01:14:15;24.40;69.60
55135;DHT22;41031;44.750;11.308;2022-07-18T01:16:42;24.40;69.60
55135;DHT22;41031;44.750;11.308;2022-07-18T01:19:10;24.40;69.50
55135;DHT22;41031;44.750;11.308;2022-07-18T01:21:38;24.40;69.50
55135;DHT22;41031;44.750;11.308;2022-07-18T01:24:06;24.40;69.70
55135;DHT22;41031;44.750;11.308;2022-07-18T01:26:33;24.30;69.90
55135;DHT22;41031;44.750;11.308;2022-07-18T01:29:01;24.40;69.90
55135;DHT22;41031;44.750;11.308;2022-07-18T01:31:28;24.30;69.90
55135;DHT22;41031;44.750;11.308;2022-07-18T01:34:00;24.30;70.00
55135;DHT22;41031;44.750;11.308;2022-07-18T01:36:28;24.20;70.20
55135;DHT22;41031;44.750;11.308;2022-07-18T01:38:55;24.20;70.50
55135;DHT22;41031;44.750;11.308;2022-07-18T01:41:22;24.20;70.60
55135;DHT22;41031;44.750;11.308;2022-07-18T01:43:49;24.20;70.80
55135;DHT22;41031;44.750;11.308;2022-07-18T01:46:17;24.20;70.90
55135;DHT22;41031;44.750;11.308;2022-07-18T01:48:47;24.20;71.20
55135;DHT22;41031;44.750;11.308;2022-07-18T01:51:14;24.20;71.20
55135;DHT22;41031;44.750;11.308;2022-07-18T01:53:41;24.20;71.10
55135;DHT22;41031;44.750;11.308;2022-07-18T01:56:12;24.20;71.20
55135;DHT22;41031;44.750;11.308;2022-07-18T01:58:39;24.20;71.50
55135;DHT22;41031;44.750;11.308;2022-07-18T02:01:06;24.20;71.50
55135;DHT22;41031;44.750;11.308;2022-07-18T02:03:34;24.20;71.50
55135;DHT22;41031;44.750;11.308;2022-07-18T02:06:01;24.20;71.80
55135;DHT22;41031;44.750;11.308;2022-07-18T02:08:28;24.20;71.80
55135;DHT22;41031;44.750;11.308;2022-07-18T02:10:56;24.20;71.80
55135;DHT22;41031;44.750;11.308;2022-07-18T02:13:24;24.20;71.90
55135;DHT22;41031;44.750;11.308;2022-07-18T02:15:51;24.20;72.10
55135;DHT22;41031;44.750;11.308;2022-07-18T02:18:22;24.20;72.20
55135;DHT22;41031;44.750;11.308;2022-07-18T02:20:49;24.10;72.20
55135;DHT22;41031;44.750;11.308;2022-07-18T02:23:16;24.20;72.40
55135;DHT22;41031;44.750;11.308;2022-07-18T02:25:43;24.10;72.50
55135;DHT22;41031;44.750;11.308;2022-07-18T02:28:11;24.00;72.70
55135;DHT22;41031;44.750;11.308;2022-07-18T02:30:38;24.00;72.90
55135;DHT22;41031;44.750;11.308;2022-07-18T02:33:05;24.00;73.20
55135;DHT22;41031;44.750;11.308;2022-07-18T02:35:33;24.00;73.20
55135;DHT22;41031;44.750;11.308;2022-07-18T02:38:00;24.00;73.40
55135;DHT22;41031;44.750;11.308;2022-07-18T02:40:27;24.00;73.70
55135;DHT22;41031;44.750;11.308;2022-07-18T02:42:55;24.00;73.90
55135;DHT22;41031;44.750;11.308;2022-07-18T02:45:22;24.00;74.00
55135;DHT22;41031;44.750;11.308;2022-07-18T02:47:49;24.00;74.10
55135;DHT22;41031;44.750;11.308;2022-07-18T02:50:16;24.00;74.20
55135;DHT22;41031;44.750;11.308;2022-07-18T02:52:44;24.00;74.20
55135;DHT22;41031;44.750;11.308;2022-07-18T02:55:12;24.00;74.20
55135;DHT22;41031;44.750;11.308;2022-07-18T02:57:40;24.00;74.20
55135;DHT22;41031;44.750;11.308;2022-07-18T03:00:10;24.00;74.20
55135;DHT22;41031;44.750;11.308;2022-07-18T03:02:38;24.00;74.30
55135;DHT22;41031;44.750;11.308;2022-07-18T03:05:06;24.00;74.20
55135;DHT22;41031;44.750;11.308;2022-07-18T03:07:33;24.00;74.20
55135;DHT22;41031;44.750;11.308;2022-07-18T03:10:00;24.00;74.20
55135;DHT22;41031;44.750;11.308;2022-07-18T03:12:27;24.00;74.20
55135;DHT22;41031;44.750;11.308;2022-07-18T03:14:55;24.00;74.20
55135;DHT22;41031;44.750;11.308;2022-07-18T03:17:22;24.00;74.10
55135;DHT22;41031;44.750;11.308;2022-07-18T03:19:49;24.00;74.20
55135;DHT22;41031;44.750;11.308;2022-07-18T03:22:16;23.90;74.30
55135;DHT22;41031;44.750;11.308;2022-07-18T03:24:44;23.90;74.50
55135;DHT22;41031;44.750;11.308;2022-07-18T03:27:11;23.90;74.60
55135;DHT22;41031;44.750;11.308;2022-07-18T03:29:38;23.80;74.70
55135;DHT22;41031;44.750;11.308;2022-07-18T03:32:05;23.80;74.80
55135;DHT22;41031;44.750;11.308;2022-07-18T03:34:33;23.70;74.90
55135;DHT22;41031;44.750;11.308;2022-07-18T03:37:00;23.70;75.20
55135;DHT22;41031;44.750;11.308;2022-07-18T03:39:27;23.70;75.20
55135;DHT22;41031;44.750;11.308;2022-07-18T03:41:55;23.70;75.50
55135;DHT22;41031;44.750;11.308;2022-07-18T03:44:22;23.70;75.50
55135;DHT22;41031;44.750;11.308;2022-07-18T03:46:49;23.70;75.20
55135;DHT22;41031;44.750;11.308;2022-07-18T03:49:18;23.70;74.90
55135;DHT22;41031;44.750;11.308;2022-07-18T03:51:46;23.60;74.60
55135;DHT22;41031;44.750;11.308;2022-07-18T03:54:13;23.60;74.40
55135;DHT22;41031;44.750;11.308;2022-07-18T03:56:40;23.60;74.70
55135;DHT22;41031;44.750;11.308;2022-07-18T03:59:07;23.60;75.20
55135;DHT22;41031;44.750;11.308;2022-07-18T04:01:34;23.50;75.40
55135;DHT22;41031;44.750;11.308;2022-07-18T04:04:01;23.50;75.30
55135;DHT22;41031;44.750;11.308;2022-07-18T04:06:29;23.50;75.30
55135;DHT22;41031;44.750;11.308;2022-07-18T04:08:56;23.50;75.30
55135;DHT22;41031;44.750;11.308;2022-07-18T04:11:23;23.50;75.20
55135;DHT22;41031;44.750;11.308;2022-07-18T04:13:52;23.60;75.40
55135;DHT22;41031;44.750;11.308;2022-07-18T04:16:20;23.60;75.40
55135;DHT22;41031;44.750;11.308;2022-07-18T04:18:48;23.60;75.20
55135;DHT22;41031;44.750;11.308;2022-07-18T04:21:15;23.60;74.80
55135;DHT22;41031;44.750;11.308;2022-07-18T04:23:43;23.70;74.60
55135;DHT22;41031;44.750;11.308;2022-07-18T04:26:10;23.70;74.40
55135;DHT22;41031;44.750;11.308;2022-07-18T04:28:37;23.70;74.00
55135;DHT22;41031;44.750;11.308;2022-07-18T04:31:05;23.80;73.70
55135;DHT22;41031;44.750;11.308;2022-07-18T04:33:32;23.90;73.80
55135;DHT22;41031;44.750;11.308;2022-07-18T04:35:59;24.00;73.70
55135;DHT22;41031;44.750;11.308;2022-07-18T04:38:27;24.00;73.60
55135;DHT22;41031;44.750;11.308;2022-07-18T04:40:57;24.10;73.70
55135;DHT22;41031;44.750;11.308;2022-07-18T04:43:25;24.10;73.60
55135;DHT22;41031;44.750;11.308;2022-07-18T04:45:52;24.20;73.60
55135;DHT22;41031;44.750;11.308;2022-07-18T04:48:19;24.30;72.80
55135;DHT22;41031;44.750;11.308;2022-07-18T04:50:46;24.30;71.40
55135;DHT22;41031;44.750;11.308;2022-07-18T04:53:13;24.40;70.50
55135;DHT22;41031;44.750;11.308;2022-07-18T04:55:41;24.50;69.90
55135;DHT22;41031;44.750;11.308;2022-07-18T04:58:08;24.60;69.40
55135;DHT22;41031;44.750;11.308;2022-07-18T05:00:35;24.60;68.80
55135;DHT22;41031;44.750;11.308;2022-07-18T05:03:03;24.70;68.20
55135;DHT22;41031;44.750;11.308;2022-07-18T05:05:30;24.80;67.50
55135;DHT22;41031;44.750;11.308;2022-07-18T05:08:03;24.80;66.80
55135;DHT22;41031;44.750;11.308;2022-07-18T05:10:31;24.90;66.40
55135;DHT22;41031;44.750;11.308;2022-07-18T05:12:58;25.00;66.20
55135;DHT22;41031;44.750;11.308;2022-07-18T05:15:26;25.10;65.90
55135;DHT22;41031;44.750;11.308;2022-07-18T05:17:54;25.20;65.70
55135;DHT22;41031;44.750;11.308;2022-07-18T05:20:22;25.20;65.60
55135;DHT22;41031;44.750;11.308;2022-07-18T05:22:50;25.30;65.60
55135;DHT22;41031;44.750;11.308;2022-07-18T05:25:19;25.40;65.20
55135;DHT22;41031;44.750;11.308;2022-07-18T05:27:49;25.50;64.20
55135;DHT22;41031;44.750;11.308;2022-07-18T05:30:16;25.70;63.20
55135;DHT22;41031;44.750;11.308;2022-07-18T05:32:45;25.80;62.80
55135;DHT22;41031;44.750;11.308;2022-07-18T05:35:12;25.90;62.30
55135;DHT22;41031;44.750;11.308;2022-07-18T05:37:40;26.00;62.40
55135;DHT22;41031;44.750;11.308;2022-07-18T05:40:10;26.10;62.50
55135;DHT22;41031;44.750;11.308;2022-07-18T05:42:37;26.30;62.20
55135;DHT22;41031;44.750;11.308;2022-07-18T05:45:23;26.40;61.50
55135;DHT22;41031;44.750;11.308;2022-07-18T05:47:51;26.40;61.00
55135;DHT22;41031;44.750;11.308;2022-07-18T05:50:18;26.50;60.50
55135;DHT22;41031;44.750;11.308;2022-07-18T05:52:46;26.60;60.50
55135;DHT22;41031;44.750;11.308;2022-07-18T05:55:13;26.60;60.00
55135;DHT22;41031;44.750;11.308;2022-07-18T05:57:40;26.70;60.00
55135;DHT22;41031;44.750;11.308;2022-07-18T06:00:10;26.80;60.20
55135;DHT22;41031;44.750;11.308;2022-07-18T06:02:37;26.90;60.10
55135;DHT22;41031;44.750;11.308;2022-07-18T06:05:06;27.00;59.30
55135;DHT22;41031;44.750;11.308;2022-07-18T06:07:55;27.10;58.60
55135;DHT22;41031;44.750;11.308;2022-07-18T06:10:25;27.20;57.60
55135;DHT22;41031;44.750;11.308;2022-07-18T06:12:52;27.30;56.80
55135;DHT22;41031;44.750;11.308;2022-07-18T06:15:20;27.30;56.50
55135;DHT22;41031;44.750;11.308;2022-07-18T06:17:47;27.30;56.50
55135;DHT22;41031;44.750;11.308;2022-07-18T06:20:15;27.40;56.50
55135;DHT22;41031;44.750;11.308;2022-07-18T06:22:42;27.50;56.40
55135;DHT22;41031;44.750;11.308;2022-07-18T06:25:10;27.50;56.80
55135;DHT22;41031;44.750;11.308;2022-07-18T06:27:37;27.60;56.90
55135;DHT22;41031;44.750;11.308;2022-07-18T06:30:05;27.80;56.90
55135;DHT22;41031;44.750;11.308;2022-07-18T06:32:34;27.90;56.20
55135;DHT22;41031;44.750;11.308;2022-07-18T06:35:01;28.00;55.50
55135;DHT22;41031;44.750;11.308;2022-07-18T06:37:29;28.20;56.20
55135;DHT22;41031;44.750;11.308;2022-07-18T06:39:56;28.30;55.90
55135;DHT22;41031;44.750;11.308;2022-07-18T06:42:29;28.40;55.20
55135;DHT22;41031;44.750;11.308;2022-07-18T06:44:57;28.50;55.60
55135;DHT22;41031;44.750;11.308;2022-07-18T06:47:24;28.60;56.20
55135;DHT22;41031;44.750;11.308;2022-07-18T06:49:52;28.80;56.20
55135;DHT22;41031;44.750;11.308;2022-07-18T06:52:19;29.00;55.90
55135;DHT22;41031;44.750;11.308;2022-07-18T06:54:46;29.20;55.10
55135;DHT22;41031;44.750;11.308;2022-07-18T06:57:13;29.40;55.20
55135;DHT22;41031;44.750;11.308;2022-07-18T06:59:40;29.60;55.10
55135;DHT22;41031;44.750;11.308;2022-07-18T07:02:14;29.80;54.10
55135;DHT22;41031;44.750;11.308;2022-07-18T07:04:43;29.80;54.50
55135;DHT22;41031;44.750;11.308;2022-07-18T07:07:10;29.70;54.90
55135;DHT22;41031;44.750;11.308;2022-07-18T07:09:37;29.70;55.50
55135;DHT22;41031;44.750;11.308;2022-07-18T07:12:04;29.90;54.90
55135;DHT22;41031;44.750;11.308;2022-07-18T07:14:31;29.90;55.10
55135;DHT22;41031;44.750;11.308;2022-07-18T07:16:58;30.10;55.40
55135;DHT22;41031;44.750;11.308;2022-07-18T07:19:26;30.30;55.60
55135;DHT22;41031;44.750;11.308;2022-07-18T07:21:53;30.50;55.10
55135;DHT22;41031;44.750;11.308;2022-07-18T07:24:20;30.70;54.60
55135;DHT22;41031;44.750;11.308;2022-07-18T07:26:48;31.00;53.80
55135;DHT22;41031;44.750;11.308;2022-07-18T07:29:22;31.00;52.90
55135;DHT22;41031;44.750;11.308;2022-07-18T07:31:49;31.00;53.30
55135;DHT22;41031;44.750;11.308;2022-07-18T07:34:17;31.00;53.60
55135;DHT22;41031;44.750;11.308;2022-07-18T07:36:44;31.00;53.00
55135;DHT22;41031;44.750;11.308;2022-07-18T07:39:11;31.10;53.50
55135;DHT22;41031;44.750;11.308;2022-07-18T07:41:38;31.40;53.00
55135;DHT22;41031;44.750;11.308;2022-07-18T07:44:05;31.30;52.40
55135;DHT22;41031;44.750;11.308;2022-07-18T07:46:32;31.10;53.00
55135;DHT22;41031;44.750;11.308;2022-07-18T07:48:59;31.00;52.60
55135;DHT22;41031;44.750;11.308;2022-07-18T07:51:26;30.90;52.60
55135;DHT22;41031;44.750;11.308;2022-07-18T07:54:01;30.80;53.40
55135;DHT22;41031;44.750;11.308;2022-07-18T07:56:29;30.70;53.50
55135;DHT22;41031;44.750;11.308;2022-07-18T07:58:56;30.70;54.10
55135;DHT22;41031;44.750;11.308;2022-07-18T08:01:23;30.90;54.60
55135;DHT22;41031;44.750;11.308;2022-07-18T08:03:50;31.10;53.90
55135;DHT22;41031;44.750;11.308;2022-07-18T08:06:17;31.40;52.50
55135;DHT22;41031;44.750;11.308;2022-07-18T08:08:44;31.60;52.30
55135;DHT22;41031;44.750;11.308;2022-07-18T08:11:12;31.80;52.40
55135;DHT22;41031;44.750;11.308;2022-07-18T08:13:39;32.10;51.50
55135;DHT22;41031;44.750;11.308;2022-07-18T08:16:06;32.20;50.80
55135;DHT22;41031;44.750;11.308;2022-07-18T08:18:33;32.40;48.90
55135;DHT22;41031;44.750;11.308;2022-07-18T08:21:01;32.20;49.50
55135;DHT22;41031;44.750;11.308;2022-07-18T08:23:28;32.20;49.00
55135;DHT22;41031;44.750;11.308;2022-07-18T08:25:55;32.20;48.50
55135;DHT22;41031;44.750;11.308;2022-07-18T08:28:22;32.20;48.50
55135;DHT22;41031;44.750;11.308;2022-07-18T08:30:51;32.40;48.70
55135;DHT22;41031;44.750;11.308;2022-07-18T08:33:18;32.60;47.50
55135;DHT22;41031;44.750;11.308;2022-07-18T08:35:45;32.70;48.10
55135;DHT22;41031;44.750;11.308;2022-07-18T08:38:12;32.90;48.00
55135;DHT22;41031;44.750;11.308;2022-07-18T08:40:40;33.00;46.80
55135;DHT22;41031;44.750;11.308;2022-07-18T08:43:07;33.20;47.10
55135;DHT22;41031;44.750;11.308;2022-07-18T08:45:53;33.40;47.20
55135;DHT22;41031;44.750;11.308;2022-07-18T08:48:22;33.60;47.40
55135;DHT22;41031;44.750;11.308;2022-07-18T08:50:50;33.70;46.00
55135;DHT22;41031;44.750;11.308;2022-07-18T08:53:19;33.90;45.00
55135;DHT22;41031;44.750;11.308;2022-07-18T08:55:47;34.10;44.80
55135;DHT22;41031;44.750;11.308;2022-07-18T08:58:15;34.30;44.10
55135;DHT22;41031;44.750;11.308;2022-07-18T09:01:04;34.30;43.90
55135;DHT22;41031;44.750;11.308;2022-07-18T09:03:32;34.30;43.60
55135;DHT22;41031;44.750;11.308;2022-07-18T09:06:07;34.40;42.20
55135;DHT22;41031;44.750;11.308;2022-07-18T09:08:37;34.40;42.10
55135;DHT22;41031;44.750;11.308;2022-07-18T09:11:10;34.30;41.90
55135;DHT22;41031;44.750;11.308;2022-07-18T09:13:57;34.30;42.40
55135;DHT22;41031;44.750;11.308;2022-07-18T09:16:25;34.30;42.00
55135;DHT22;41031;44.750;11.308;2022-07-18T09:18:54;34.30;42.10
55135;DHT22;41031;44.750;11.308;2022-07-18T09:21:23;34.30;43.10
55135;DHT22;41031;44.750;11.308;2022-07-18T09:23:52;34.50;42.10
55135;DHT22;41031;44.750;11.308;2022-07-18T09:26:42;34.70;41.30
55135;DHT22;41031;44.750;11.308;2022-07-18T09:29:16;34.80;41.40
55135;DHT22;41031;44.750;11.308;2022-07-18T09:32:04;34.90;41.80
55135;DHT22;41031;44.750;11.308;2022-07-18T09:34:36;35.00;41.90
55135;DHT22;41031;44.750;11.308;2022-07-18T09:37:11;35.10;41.90
55135;DHT22;41031;44.750;11.308;2022-07-18T09:39:38;35.10;42.00
55135;DHT22;41031;44.750;11.308;2022-07-18T09:42:16;35.20;40.10
55135;DHT22;41031;44.750;11.308;2022-07-18T09:44:57;35.00;40.50
55135;DHT22;41031;44.750;11.308;2022-07-18T09:47:25;34.80;42.40
55135;DHT22;41031;44.750;11.308;2022-07-18T09:49:52;34.80;43.10
55135;DHT22;41031;44.750;11.308;2022-07-18T09:52:19;34.90;40.60
55135;DHT22;41031;44.750;11.308;2022-07-18T09:54:47;34.90;40.90
55135;DHT22;41031;44.750;11.308;2022-07-18T09:57:25;34.80;41.70
55135;DHT22;41031;44.750;11.308;2022-07-18T09:59:53;34.80;42.50
55135;DHT22;41031;44.750;11.308;2022-07-18T10:02:21;34.80;42.60
55135;DHT22;41031;44.750;11.308;2022-07-18T10:04:49;34.80;42.30
55135;DHT22;41031;44.750;11.308;2022-07-18T10:07:16;34.80;42.30
55135;DHT22;41031;44.750;11.308;2022-07-18T10:09:44;34.80;41.10
55135;DHT22;41031;44.750;11.308;2022-07-18T10:12:15;34.80;41.00
55135;DHT22;41031;44.750;11.308;2022-07-18T10:14:44;34.80;42.30
55135;DHT22;41031;44.750;11.308;2022-07-18T10:17:11;34.80;41.90
55135;DHT22;41031;44.750;11.308;2022-07-18T10:19:39;34.80;41.70
55135;DHT22;41031;44.750;11.308;2022-07-18T10:22:07;34.90;41.90
55135;DHT22;41031;44.750;11.308;2022-07-18T10:24:39;35.10;41.60
55135;DHT22;41031;44.750;11.308;2022-07-18T10:27:19;35.10;40.80
55135;DHT22;41031;44.750;11.308;2022-07-18T10:30:09;35.00;41.90
55135;DHT22;41031;44.750;11.308;2022-07-18T10:32:37;35.20;42.30
55135;DHT22;41031;44.750;11.308;2022-07-18T10:35:05;35.30;41.90
55135;DHT22;41031;44.750;11.308;2022-07-18T10:37:34;35.50;42.10
55135;DHT22;41031;44.750;11.308;2022-07-18T10:40:22;35.50;41.20
55135;DHT22;41031;44.750;11.308;2022-07-18T10:45:59;35.80;41.50
55135;DHT22;41031;44.750;11.308;2022-07-18T10:58:56;36.00;38.40
55135;DHT22;41031;44.750;11.308;2022-07-18T11:01:25;36.10;37.80
55135;DHT22;41031;44.750;11.308;2022-07-18T11:04:28;36.20;35.40
55135;DHT22;41031;44.750;11.308;2022-07-18T11:07:14;36.20;35.40
55135;DHT22;41031;44.750;11.308;2022-07-18T11:09:47;36.20;35.00
55135;DHT22;41031;44.750;11.308;2022-07-18T11:12:31;36.20;33.90
55135;DHT22;41031;44.750;11.308;2022-07-18T11:15:13;36.30;32.90
55135;DHT22;41031;44.750;11.308;2022-07-18T11:17:56;36.20;32.60
55135;DHT22;41031;44.750;11.308;2022-07-18T11:20:35;36.10;34.10
55135;DHT22;41031;44.750;11.308;2022-07-18T11:23:10;36.10;33.60
55135;DHT22;41031;44.750;11.308;2022-07-18T11:25:40;36.20;33.80
55135;DHT22;41031;44.750;11.308;2022-07-18T11:28:26;36.30;33.60
55135;DHT22;41031;44.750;11.308;2022-07-18T11:31:10;36.40;32.90
55135;DHT22;41031;44.750;11.308;2022-07-18T11:33:45;36.40;33.70
55135;DHT22;41031;44.750;11.308;2022-07-18T11:36:15;36.50;33.50
55135;DHT22;41031;44.750;11.308;2022-07-18T11:38:57;36.60;33.40
55135;DHT22;41031;44.750;11.308;2022-07-18T11:41:25;36.70;32.30
55135;DHT22;41031;44.750;11.308;2022-07-18T11:43:54;36.70;32.80
55135;DHT22;41031;44.750;11.308;2022-07-18T11:46:24;36.70;33.10
55135;DHT22;41031;44.750;11.308;2022-07-18T11:49:03;36.70;33.30
55135;DHT22;41031;44.750;11.308;2022-07-18T11:51:35;36.80;33.50
55135;DHT22;41031;44.750;11.308;2022-07-18T11:54:04;36.90;33.40
55135;DHT22;41031;44.750;11.308;2022-07-18T11:56:31;36.90;32.90
55135;DHT22;41031;44.750;11.308;2022-07-18T11:58:58;36.90;32.50
55135;DHT22;41031;44.750;11.308;2022-07-18T12:01:32;36.90;33.20
55135;DHT22;41031;44.750;11.308;2022-07-18T12:04:00;36.90;33.20
55135;DHT22;41031;44.750;11.308;2022-07-18T12:06:29;36.90;33.70
55135;DHT22;41031;44.750;11.308;2022-07-18T12:08:58;37.00;33.10
55135;DHT22;41031;44.750;11.308;2022-07-18T12:11:37;37.00;32.60
55135;DHT22;41031;44.750;11.308;2022-07-18T12:14:17;36.90;33.40
55135;DHT22;41031;44.750;11.308;2022-07-18T12:16:49;36.80;33.60
55135;DHT22;41031;44.750;11.308;2022-07-18T12:19:36;36.80;33.10
55135;DHT22;41031;44.750;11.308;2022-07-18T12:29:59;36.90;33.40
55135;DHT22;41031;44.750;11.308;2022-07-18T12:32:49;36.90;33.30
55135;DHT22;41031;44.750;11.308;2022-07-18T12:35:23;37.00;33.70
55135;DHT22;41031;44.750;11.308;2022-07-18T12:40:19;36.80;33.80
55135;DHT22;41031;44.750;11.308;2022-07-18T12:43:10;36.80;34.10
55135;DHT22;41031;44.750;11.308;2022-07-18T12:45:39;36.70;33.70
55135;DHT22;41031;44.750;11.308;2022-07-18T12:48:09;36.80;34.30
55135;DHT22;41031;44.750;11.308;2022-07-18T12:50:37;36.80;34.70
55135;DHT22;41031;44.750;11.308;2022-07-18T12:53:05;36.70;34.20
55135;DHT22;41031;44.750;11.308;2022-07-18T12:55:32;36.70;33.70
55135;DHT22;41031;44.750;11.308;2022-07-18T12:58:00;36.70;34.00
55135;DHT22;41031;44.750;11.308;2022-07-18T13:00:29;36.80;34.50
55135;DHT22;41031;44.750;11.308;2022-07-18T13:02:58;36.80;34.80
55135;DHT22;41031;44.750;11.308;2022-07-18T13:05:27;36.90;35.10
55135;DHT22;41031;44.750;11.308;2022-07-18T13:07:55;37.00;34.50
55135;DHT22;41031;44.750;11.308;2022-07-18T13:10:22;37.00;34.60
55135;DHT22;41031;44.750;11.308;2022-07-18T13:12:50;37.00;34.50
55135;DHT22;41031;44.750;11.308;2022-07-18T13:15:18;36.90;34.90
55135;DHT22;41031;44.750;11.308;2022-07-18T13:17:48;36.90;33.90
55135;DHT22;41031;44.750;11.308;2022-07-18T13:20:16;36.80;34.50
55135;DHT22;41031;44.750;11.308;2022-07-18T13:22:44;36.70;35.20
55135;DHT22;41031;44.750;11.308;2022-07-18T13:25:20;36.50;35.30
55135;DHT22;41031;44.750;11.308;2022-07-18T13:27:48;36.50;35.70
55135;DHT22;41031;44.750;11.308;2022-07-18T13:30:15;36.50;35.80
55135;DHT22;41031;44.750;11.308;2022-07-18T13:32:43;36.50;35.80
55135;DHT22;41031;44.750;11.308;2022-07-18T13:35:12;36.60;36.20
55135;DHT22;41031;44.750;11.308;2022-07-18T13:37:40;36.50;35.20
55135;DHT22;41031;44.750;11.308;2022-07-18T13:40:08;36.40;36.00
55135;DHT22;41031;44.750;11.308;2022-07-18T13:42:36;36.20;36.40
55135;DHT22;41031;44.750;11.308;2022-07-18T13:45:05;36.20;36.80
55135;DHT22;41031;44.750;11.308;2022-07-18T13:47:33;36.20;36.30
55135;DHT22;41031;44.750;11.308;2022-07-18T13:50:00;36.20;37.00
55135;DHT22;41031;44.750;11.308;2022-07-18T13:52:27;36.20;36.70
55135;DHT22;41031;44.750;11.308;2022-07-18T13:54:55;36.20;37.00
55135;DHT22;41031;44.750;11.308;2022-07-18T13:57:22;36.20;36.70
55135;DHT22;41031;44.750;11.308;2022-07-18T13:59:50;36.20;36.20
55135;DHT22;41031;44.750;11.308;2022-07-18T14:02:18;36.20;35.90
55135;DHT22;41031;44.750;11.308;2022-07-18T14:04:46;36.30;36.00
55135;DHT22;41031;44.750;11.308;2022-07-18T14:07:33;36.40;36.60
55135;DHT22;41031;44.750;11.308;2022-07-18T14:10:00;36.40;36.20
55135;DHT22;41031;44.750;11.308;2022-07-18T14:12:28;36.40;36.50
55135;DHT22;41031;44.750;11.308;2022-07-18T14:14:55;36.40;36.50
55135;DHT22;41031;44.750;11.308;2022-07-18T14:17:22;36.40;36.30
55135;DHT22;41031;44.750;11.308;2022-07-18T14:19:49;36.40;36.70
55135;DHT22;41031;44.750;11.308;2022-07-18T14:22:16;36.40;36.60
55135;DHT22;41031;44.750;11.308;2022-07-18T14:24:43;36.40;36.80
55135;DHT22;41031;44.750;11.308;2022-07-18T14:27:10;36.50;37.10
55135;DHT22;41031;44.750;11.308;2022-07-18T14:29:37;36.50;36.90
55135;DHT22;41031;44.750;11.308;2022-07-18T14:32:05;36.60;36.80
55135;DHT22;41031;44.750;11.308;2022-07-18T14:34:34;36.50;36.50
55135;DHT22;41031;44.750;11.308;2022-07-18T14:37:01;36.40;36.10
55135;DHT22;41031;44.750;11.308;2022-07-18T14:39:28;36.30;36.40
55135;DHT22;41031;44.750;11.308;2022-07-18T14:41:56;36.20;36.60
55135;DHT22;41031;44.750;11.308;2022-07-18T14:44:25;36.00;37.10
55135;DHT22;41031;44.750;11.308;2022-07-18T14:46:54;36.00;37.30
55135;DHT22;41031;44.750;11.308;2022-07-18T14:49:21;36.00;37.30
55135;DHT22;41031;44.750;11.308;2022-07-18T14:51:48;36.00;37.50
55135;DHT22;41031;44.750;11.308;2022-07-18T14:54:22;36.00;37.90
55135;DHT22;41031;44.750;11.308;2022-07-18T14:56:50;35.90;38.20
55135;DHT22;41031;44.750;11.308;2022-07-18T14:59:18;35.90;38.30
55135;DHT22;41031;44.750;11.308;2022-07-18T15:01:46;35.80;37.90
55135;DHT22;41031;44.750;11.308;2022-07-18T15:04:14;35.80;37.20
55135;DHT22;41031;44.750;11.308;2022-07-18T15:06:45;35.80;37.10
55135;DHT22;41031;44.750;11.308;2022-07-18T15:09:13;35.80;37.30
55135;DHT22;41031;44.750;11.308;2022-07-18T15:11:41;35.70;37.60
55135;DHT22;41031;44.750;11.308;2022-07-18T15:14:08;35.70;37.70
55135;DHT22;41031;44.750;11.308;2022-07-18T15:16:36;35.60;38.10
55135;DHT22;41031;44.750;11.308;2022-07-18T15:19:04;35.70;37.80
55135;DHT22;41031;44.750;11.308;2022-07-18T15:21:31;35.70;37.60
55135;DHT22;41031;44.750;11.308;2022-07-18T15:23:58;35.70;37.00
55135;DHT22;41031;44.750;11.308;2022-07-18T15:26:26;35.70;36.90
55135;DHT22;41031;44.750;11.308;2022-07-18T15:28:53;35.60;37.20
55135;DHT22;41031;44.750;11.308;2022-07-18T15:31:20;35.60;37.40
55135;DHT22;41031;44.750;11.308;2022-07-18T15:33:47;35.50;37.00
55135;DHT22;41031;44.750;11.308;2022-07-18T15:36:15;35.50;36.50
55135;DHT22;41031;44.750;11.308;2022-07-18T15:38:42;35.40;36.80
55135;DHT22;41031;44.750;11.308;2022-07-18T15:41:10;35.40;37.10
55135;DHT22;41031;44.750;11.308;2022-07-18T15:43:39;35.40;37.00
55135;DHT22;41031;44.750;11.308;2022-07-18T15:46:07;35.30;36.40
55135;DHT22;41031;44.750;11.308;2022-07-18T15:48:35;35.30;36.50
55135;DHT22;41031;44.750;11.308;2022-07-18T15:51:03;35.20;36.70